createdAt,value
2023-05-14T00:00:55.079Z,101656.09
2023-05-14T00:03:41.368Z,101658.22
2023-05-14T00:06:25.081Z,101653.41
2023-05-14T00:09:08.628Z,101656.81
2023-05-14T00:11:52.419Z,101656.22
2023-05-14T00:14:36.318Z,101652.09
2023-05-14T00:17:20.086Z,101651.13
2023-05-14T00:20:07.318Z,101653.06
2023-05-14T00:22:50.985Z,101652.00
2023-05-14T00:25:34.560Z,101645.56
2023-05-14T00:28:18.220Z,101640.72
2023-05-14T00:31:01.792Z,101642.34
2023-05-14T00:33:45.621Z,101640.16
2023-05-14T00:36:29.207Z,101632.34
2023-05-14T00:39:14.252Z,101644.19
2023-05-14T00:41:57.865Z,101634.88
2023-05-14T00:44:41.412Z,101635.41
2023-05-14T00:47:25.216Z,101633.94
2023-05-14T00:50:10.030Z,101630.63
2023-05-14T00:52:54.036Z,101631.47
2023-05-14T00:55:42.578Z,101638.59
2023-05-14T00:58:26.479Z,101632.50
2023-05-14T01:01:10.586Z,101633.34
2023-05-14T01:03:57.979Z,101632.69
2023-05-14T01:07:07.401Z,101624.66
2023-05-14T01:10:20.188Z,101629.94
2023-05-14T01:13:21.189Z,101618.75
2023-05-14T01:16:07.429Z,101620.69
2023-05-14T01:18:52.728Z,101626.56
2023-05-14T01:21:38.545Z,101626.28
2023-05-14T01:24:22.092Z,101620.34
2023-05-14T01:27:29.868Z,101619.03
2023-05-14T01:30:32.140Z,101620.38
2023-05-14T01:33:19.800Z,101620.06
2023-05-14T01:36:05.829Z,101612.16
2023-05-14T01:38:51.372Z,101620.34
2023-05-14T01:41:39.489Z,101613.06
2023-05-14T01:44:23.384Z,101614.84
2023-05-14T01:47:06.981Z,101609.38
2023-05-14T01:49:50.886Z,101614.00
2023-05-14T01:52:34.454Z,101610.59
2023-05-14T01:55:18.531Z,101606.25
2023-05-14T01:58:02.303Z,101600.97
2023-05-14T02:00:45.860Z,101613.47
2023-05-14T02:03:29.477Z,101605.34
2023-05-14T02:06:13.258Z,101607.44
2023-05-14T02:08:56.966Z,101607.41
2023-05-14T02:11:40.771Z,101598.47
2023-05-14T02:14:24.321Z,101597.25
2023-05-14T02:17:08.103Z,101602.19
2023-05-14T02:19:51.838Z,101597.22
2023-05-14T02:22:36.206Z,101598.66
2023-05-14T02:25:20.100Z,101598.19
2023-05-14T02:28:04.802Z,101597.94
2023-05-14T02:30:48.362Z,101599.31
2023-05-14T02:33:32.057Z,101593.09
2023-05-14T02:36:15.825Z,101600.00
2023-05-14T02:39:00.407Z,101596.50
2023-05-14T02:41:43.985Z,101593.47
2023-05-14T02:44:27.613Z,101589.44
2023-05-14T02:47:11.317Z,101583.72
2023-05-14T02:49:54.951Z,101583.84
2023-05-14T02:52:38.621Z,101584.31
2023-05-14T02:55:22.861Z,101583.44
2023-05-14T02:58:06.523Z,101584.75
2023-05-14T03:00:50.093Z,101584.53
2023-05-14T03:03:34.571Z,101585.50
2023-05-14T03:06:18.513Z,101584.88
2023-05-14T03:09:02.039Z,101583.94
2023-05-14T03:11:46.061Z,101582.06
2023-05-14T03:14:29.740Z,101591.56
2023-05-14T03:17:13.315Z,101590.88
2023-05-14T03:19:56.912Z,101592.84
2023-05-14T03:22:40.932Z,101597.78
2023-05-14T03:25:24.909Z,101593.84
2023-05-14T03:28:08.416Z,101592.06
2023-05-14T03:30:52.034Z,101587.38
2023-05-14T03:33:35.956Z,101593.56
2023-05-14T03:36:19.622Z,101596.13
2023-05-14T03:39:06.924Z,101596.78
2023-05-14T03:41:52.496Z,101594.22
2023-05-14T03:44:36.225Z,101590.06
2023-05-14T03:47:20.412Z,101588.72
2023-05-14T03:50:04.382Z,101588.09
2023-05-14T03:52:48.108Z,101590.25
2023-05-14T03:55:31.638Z,101591.03
2023-05-14T03:58:15.348Z,101588.97
2023-05-14T04:00:58.973Z,101584.44
2023-05-14T04:03:42.755Z,101587.47
2023-05-14T04:06:27.082Z,101581.34
2023-05-14T04:09:12.067Z,101592.34
2023-05-14T04:11:55.636Z,101588.16
2023-05-14T04:14:39.184Z,101585.91
2023-05-14T04:17:22.712Z,101581.34
2023-05-14T04:20:07.506Z,101580.88
2023-05-14T04:22:51.068Z,101577.03
2023-05-14T04:25:34.597Z,101575.72
2023-05-14T04:28:18.152Z,101579.47
2023-05-14T04:31:01.694Z,101582.34
2023-05-14T04:33:45.323Z,101576.22
2023-05-14T04:36:28.964Z,101578.75
2023-05-14T04:39:12.694Z,101581.31
2023-05-14T04:41:56.255Z,101560.22
2023-05-14T04:44:39.778Z,101569.69
2023-05-14T04:47:23.438Z,101566.13
2023-05-14T04:50:09.306Z,101558.56
2023-05-14T04:52:52.831Z,101559.81
2023-05-14T04:55:36.447Z,101555.50
2023-05-14T04:58:20.000Z,101556.19
2023-05-14T05:01:06.034Z,101557.09
2023-05-14T05:03:49.714Z,101562.72
2023-05-14T05:06:33.274Z,101564.13
2023-05-14T05:09:18.224Z,101561.91
2023-05-14T05:12:02.097Z,101558.88
2023-05-14T05:14:45.629Z,101568.38
2023-05-14T05:17:29.806Z,101563.41
2023-05-14T05:20:15.907Z,101558.34
2023-05-14T05:22:59.670Z,101553.44
2023-05-14T05:25:43.207Z,101558.06
2023-05-14T05:28:26.744Z,101558.00
2023-05-14T05:31:10.506Z,101556.34
2023-05-14T05:33:54.028Z,101558.41
2023-05-14T05:36:37.567Z,101558.53
2023-05-14T05:39:21.137Z,101558.69
2023-05-14T05:42:06.046Z,101551.72
2023-05-14T05:44:49.557Z,101549.69
2023-05-14T05:47:35.605Z,101545.25
2023-05-14T05:50:19.975Z,101547.75
2023-05-14T05:53:04.237Z,101544.25
2023-05-14T05:55:47.801Z,101543.31
2023-05-14T05:58:31.302Z,101545.88
2023-05-14T06:01:14.915Z,101537.38
2023-05-14T06:03:58.766Z,101540.16
2023-05-14T06:06:42.563Z,101545.63
2023-05-14T06:09:26.071Z,101542.91
2023-05-14T06:12:09.699Z,101551.13
2023-05-14T06:14:55.816Z,101545.84
2023-05-14T06:17:39.430Z,101546.28
2023-05-14T06:20:23.176Z,101545.06
2023-05-14T06:23:08.051Z,101540.41
2023-05-14T06:25:51.653Z,101545.78
2023-05-14T06:28:35.381Z,101544.22
2023-05-14T06:31:19.242Z,101538.78
2023-05-14T06:34:02.820Z,101538.91
2023-05-14T06:36:46.398Z,101540.88
2023-05-14T06:39:29.974Z,101530.41
2023-05-14T06:42:13.531Z,101534.25
2023-05-14T06:44:57.082Z,101537.97
2023-05-14T06:47:41.455Z,101540.47
2023-05-14T06:50:25.685Z,101548.91
2023-05-14T06:53:09.375Z,101539.03
2023-05-14T06:55:52.883Z,101539.13
2023-05-14T06:58:36.412Z,101548.13
2023-05-14T07:01:19.977Z,101544.81
2023-05-14T07:04:03.645Z,101538.19
2023-05-14T07:06:47.280Z,101538.84
2023-05-14T07:09:30.763Z,101531.84
2023-05-14T07:12:14.311Z,101536.84
2023-05-14T07:14:57.849Z,101531.03
2023-05-14T07:17:41.718Z,101526.69
2023-05-14T07:20:25.614Z,101522.56
2023-05-14T07:23:09.321Z,101531.06
2023-05-14T07:25:52.880Z,101520.81
2023-05-14T07:28:36.462Z,101523.53
2023-05-14T07:31:20.229Z,101527.81
2023-05-14T07:34:03.878Z,101523.50
2023-05-14T07:36:47.804Z,101517.94
2023-05-14T07:39:31.407Z,101515.69
2023-05-14T07:42:24.704Z,101515.03
2023-05-14T07:45:15.814Z,101508.06
2023-05-14T07:47:59.547Z,101505.53
2023-05-14T07:50:43.568Z,101495.44
2023-05-14T07:53:27.131Z,101498.56
2023-05-14T07:56:10.756Z,101500.47
2023-05-14T07:58:54.286Z,101491.28
2023-05-14T08:01:39.305Z,101494.53
2023-05-14T08:04:23.610Z,101489.81
2023-05-14T08:07:08.718Z,101481.78
2023-05-14T08:09:52.259Z,101482.84
2023-05-14T08:12:35.823Z,101482.72
2023-05-14T08:15:19.391Z,101483.91
2023-05-14T08:18:03.880Z,101470.88
2023-05-14T08:20:47.530Z,101471.00
2023-05-14T08:23:31.047Z,101476.81
2023-05-14T08:26:14.633Z,101469.13
2023-05-14T08:29:00.597Z,101471.31
2023-05-14T08:31:44.354Z,101466.72
2023-05-14T08:34:28.802Z,101469.00
2023-05-14T08:37:12.408Z,101460.47
2023-05-14T08:39:56.450Z,101470.22
2023-05-14T08:42:45.131Z,101466.78
2023-05-14T08:45:34.544Z,101458.81
2023-05-14T08:48:21.663Z,101456.84
2023-05-14T08:51:05.648Z,101456.16
2023-05-14T08:53:49.313Z,101453.31
2023-05-14T08:56:34.083Z,101441.09
2023-05-14T08:59:17.924Z,101444.22
2023-05-14T09:02:05.278Z,101449.34
2023-05-14T09:04:57.554Z,101438.88
2023-05-14T09:07:41.729Z,101432.59
2023-05-14T09:10:28.004Z,101422.00
2023-05-14T09:13:11.666Z,101425.88
2023-05-14T09:15:56.496Z,101415.19
2023-05-14T09:18:45.469Z,101410.00
2023-05-14T09:21:31.013Z,101406.09
2023-05-14T09:24:25.913Z,101404.84
2023-05-14T09:27:15.952Z,101406.72
2023-05-14T09:30:12.477Z,101406.88
2023-05-14T09:32:56.562Z,101400.00
2023-05-14T09:35:43.550Z,101386.72
2023-05-14T09:38:35.745Z,101385.00
2023-05-14T09:41:21.057Z,101380.75
2023-05-14T09:44:06.688Z,101372.53
2023-05-14T09:46:51.481Z,101368.91
2023-05-14T09:49:37.179Z,101366.47
2023-05-14T09:52:21.398Z,101363.22
2023-05-14T09:55:06.724Z,101363.19
2023-05-14T09:57:50.428Z,101358.34
2023-05-14T10:00:35.275Z,101345.94
2023-05-14T10:03:22.685Z,101342.38
2023-05-14T10:06:08.004Z,101348.47
2023-05-14T10:09:02.101Z,101347.81
2023-05-14T10:11:55.239Z,101351.31
2023-05-14T10:14:50.377Z,101340.28
2023-05-14T10:17:45.898Z,101336.66
2023-05-14T10:20:31.183Z,101333.84
2023-05-14T10:23:15.204Z,101328.81
2023-05-14T10:26:00.612Z,101334.47
2023-05-14T10:28:44.696Z,101334.88
2023-05-14T10:31:55.582Z,101333.34
2023-05-14T10:34:44.459Z,101332.91
2023-05-14T10:37:28.454Z,101323.72
2023-05-14T10:40:14.267Z,101323.75
2023-05-14T10:43:00.006Z,101319.41
2023-05-14T10:45:46.758Z,101316.75
2023-05-14T10:48:31.214Z,101317.09
2023-05-14T10:51:17.640Z,101312.97
2023-05-14T10:54:01.832Z,101320.22
2023-05-14T10:56:49.198Z,101313.84
2023-05-14T10:59:34.738Z,101317.41
2023-05-14T11:02:27.457Z,101309.06
2023-05-14T11:05:17.814Z,101314.25
2023-05-14T11:08:07.967Z,101312.69
2023-05-14T11:10:52.425Z,101309.50
2023-05-14T11:13:36.442Z,101302.75
2023-05-14T11:16:24.110Z,101303.53
2023-05-14T11:19:07.940Z,101300.34
2023-05-14T11:21:51.615Z,101294.78
2023-05-14T11:24:35.145Z,101294.78
2023-05-14T11:27:20.855Z,101297.97
2023-05-14T11:30:05.168Z,101289.59
2023-05-14T11:32:51.471Z,101292.00
2023-05-14T11:35:36.914Z,101292.38
2023-05-14T11:38:21.497Z,101286.09
2023-05-14T11:41:05.891Z,101283.69
2023-05-14T11:43:49.514Z,101281.25
2023-05-14T11:46:33.129Z,101274.50
2023-05-14T11:49:16.640Z,101272.56
2023-05-14T11:52:02.406Z,101270.16
2023-05-14T11:54:46.262Z,101268.59
2023-05-14T11:57:31.665Z,101260.28
2023-05-14T12:00:21.767Z,101253.84
2023-05-14T12:03:06.650Z,101247.94
2023-05-14T12:05:56.177Z,101247.09
2023-05-14T12:08:39.746Z,101239.88
2023-05-14T12:11:23.297Z,101234.59
2023-05-14T12:14:23.196Z,101234.41
2023-05-14T12:17:28.035Z,101238.91
2023-05-14T12:20:12.597Z,101224.59
2023-05-14T12:22:56.156Z,101230.13
2023-05-14T12:25:39.726Z,101219.13
2023-05-14T12:28:23.903Z,101213.75
2023-05-14T12:31:07.473Z,101221.25
2023-05-14T12:33:50.993Z,101221.63
2023-05-14T12:36:34.569Z,101207.34
2023-05-14T12:39:18.282Z,101198.97
2023-05-14T12:42:02.469Z,101208.81
2023-05-14T12:44:45.980Z,101205.88
2023-05-14T12:47:29.767Z,101208.06
2023-05-14T12:50:14.428Z,101198.03
2023-05-14T12:52:58.024Z,101201.78
2023-05-14T12:55:41.581Z,101208.19
2023-05-14T12:58:25.302Z,101206.59
2023-05-14T13:01:08.980Z,101203.44
2023-05-14T13:03:52.717Z,101198.66
2023-05-14T13:06:37.104Z,101193.91
2023-05-14T13:09:20.780Z,101193.75
2023-05-14T13:12:04.849Z,101186.72
2023-05-14T13:14:48.481Z,101179.97
2023-05-14T13:17:37.813Z,101185.78
2023-05-14T13:20:23.793Z,101173.13
2023-05-14T13:23:08.040Z,101167.59
2023-05-14T13:25:51.854Z,101174.81
2023-05-14T13:28:35.729Z,101176.03
2023-05-14T13:31:19.652Z,101173.28
2023-05-14T13:34:03.613Z,101175.28
2023-05-14T13:36:49.563Z,101153.78
2023-05-14T13:39:33.576Z,101157.31
2023-05-14T13:42:17.658Z,101152.97
2023-05-14T13:45:01.740Z,101158.94
2023-05-14T13:47:45.772Z,101158.97
2023-05-14T13:50:29.769Z,101157.81
2023-05-14T13:53:13.796Z,101153.84
2023-05-14T13:55:58.620Z,101146.69
2023-05-14T13:58:42.270Z,101143.03
2023-05-14T14:01:33.726Z,101144.31
2023-05-14T14:04:20.208Z,101145.53
2023-05-14T14:07:04.297Z,101140.69
2023-05-14T14:09:48.043Z,101137.56
2023-05-14T14:12:31.671Z,101133.13
2023-05-14T14:15:16.226Z,101127.47
2023-05-14T14:17:59.874Z,101123.84
2023-05-14T14:20:43.976Z,101110.47
2023-05-14T14:23:30.045Z,101109.31
2023-05-14T14:26:13.974Z,101103.81
2023-05-14T14:28:57.668Z,101109.63
2023-05-14T14:31:44.098Z,101109.63
2023-05-14T14:34:28.427Z,101102.38
2023-05-14T14:37:12.403Z,101096.44
2023-05-14T14:39:56.297Z,101099.19
2023-05-14T14:42:40.510Z,101110.47
2023-05-14T14:45:24.659Z,101102.56
2023-05-14T14:48:26.973Z,101101.53
2023-05-14T14:51:10.615Z,101099.41
2023-05-14T14:53:54.355Z,101100.72
2023-05-14T14:56:38.114Z,101099.50
2023-05-14T14:59:23.238Z,101102.34
2023-05-14T15:02:09.723Z,101099.34
2023-05-14T15:04:54.933Z,101098.41
2023-05-14T15:07:39.650Z,101099.22
2023-05-14T15:10:24.692Z,101085.84
2023-05-14T15:13:09.503Z,101085.44
2023-05-14T15:15:53.980Z,101084.13
2023-05-14T15:18:37.915Z,101081.03
2023-05-14T15:21:22.247Z,101079.94
2023-05-14T15:24:06.310Z,101079.66
2023-05-14T15:26:51.012Z,101079.22
2023-05-14T15:29:36.328Z,101066.81
2023-05-14T15:32:20.122Z,101066.84
2023-05-14T15:35:04.097Z,101067.44
2023-05-14T15:37:47.632Z,101064.03
2023-05-14T15:40:31.248Z,101063.06
2023-05-14T15:43:14.769Z,101058.50
2023-05-14T15:46:01.890Z,101061.44
2023-05-14T15:48:48.446Z,101050.94
2023-05-14T15:51:39.332Z,101055.13
2023-05-14T15:54:22.799Z,101047.19
2023-05-14T15:57:06.487Z,101052.81
2023-05-14T15:59:57.448Z,101051.28
2023-05-14T16:02:48.772Z,101048.19
2023-05-14T16:05:32.542Z,101039.19
2023-05-14T16:08:16.058Z,101034.97
2023-05-14T16:11:01.056Z,101038.03
2023-05-14T16:13:47.107Z,101036.72
2023-05-14T16:16:31.810Z,101035.97
2023-05-14T16:19:16.903Z,101031.03
2023-05-14T16:22:01.159Z,101037.81
2023-05-14T16:25:17.597Z,101025.28
2023-05-14T16:28:01.793Z,101026.09
2023-05-14T16:30:48.575Z,101024.34
2023-05-14T16:33:35.224Z,101012.72
2023-05-14T16:36:20.585Z,101015.16
2023-05-14T16:39:08.129Z,101015.09
2023-05-14T16:41:55.520Z,101018.84
2023-05-14T16:44:39.489Z,101018.34
2023-05-14T16:47:39.904Z,101011.44
2023-05-14T16:50:23.768Z,101013.34
2023-05-14T16:53:08.206Z,101015.59
2023-05-14T16:56:10.536Z,101018.59
2023-05-14T16:58:55.288Z,101012.25
2023-05-14T17:01:41.736Z,101015.25
2023-05-14T17:04:27.016Z,101023.91
2023-05-14T17:07:12.053Z,101018.44
2023-05-14T17:09:56.186Z,101017.59
2023-05-14T17:12:40.201Z,101020.69
2023-05-14T17:15:24.235Z,101017.84
2023-05-14T17:18:08.769Z,101013.94
2023-05-14T17:20:52.780Z,101014.28
2023-05-14T17:23:36.597Z,101011.97
2023-05-14T17:26:20.422Z,101013.66
2023-05-14T17:29:04.377Z,101014.50
2023-05-14T17:31:48.979Z,101011.66
2023-05-14T17:34:32.797Z,101018.06
2023-05-14T17:37:16.585Z,101013.59
2023-05-14T17:40:00.153Z,101017.22
2023-05-14T17:42:45.541Z,101019.09
2023-05-14T17:45:36.469Z,101013.66
2023-05-14T17:48:26.563Z,101015.91
2023-05-14T17:51:10.120Z,101012.16
2023-05-14T17:53:53.723Z,101005.78
2023-05-14T17:56:37.677Z,101018.53
2023-05-14T17:59:24.134Z,101020.16
2023-05-14T18:02:08.033Z,101009.00
2023-05-14T18:04:51.558Z,101013.41
2023-05-14T18:07:36.412Z,101016.56
2023-05-14T18:10:19.973Z,101018.94
2023-05-14T18:13:03.815Z,101015.75
2023-05-14T18:15:47.496Z,101014.97
2023-05-14T18:18:31.757Z,101020.94
2023-05-14T18:21:15.428Z,101023.31
2023-05-14T18:23:58.997Z,101028.06
2023-05-14T18:26:42.779Z,101029.66
2023-05-14T18:29:32.165Z,101023.28
2023-05-14T18:32:19.116Z,101022.81
2023-05-14T18:35:03.851Z,101026.34
2023-05-14T18:37:49.112Z,101025.34
2023-05-14T18:40:32.629Z,101018.97
2023-05-14T18:43:18.502Z,101021.56
2023-05-14T18:46:02.181Z,101024.66
2023-05-14T18:48:45.870Z,101019.03
2023-05-14T18:51:29.765Z,101026.53
2023-05-14T18:54:13.324Z,101022.59
2023-05-14T18:56:57.007Z,101024.06
2023-05-14T18:59:40.625Z,101027.97
2023-05-14T19:02:24.202Z,101035.81
2023-05-14T19:05:08.457Z,101031.03
2023-05-14T19:07:52.215Z,101029.66
2023-05-14T19:10:35.871Z,101033.22
2023-05-14T19:13:19.551Z,101031.03
2023-05-14T19:16:03.112Z,101020.78
2023-05-14T19:18:46.760Z,101023.03
2023-05-14T19:21:30.308Z,101021.25
2023-05-14T19:24:13.968Z,101025.41
2023-05-14T19:26:57.935Z,101031.56
2023-05-14T19:29:41.795Z,101029.06
2023-05-14T19:32:25.662Z,101026.97
2023-05-14T19:35:10.064Z,101026.06
2023-05-14T19:37:53.766Z,101026.59
2023-05-14T19:40:37.669Z,101022.50
2023-05-14T19:43:21.486Z,101022.66
2023-05-14T19:46:06.492Z,101017.84
2023-05-14T19:48:50.145Z,101010.59
2023-05-14T19:51:33.922Z,101006.88
2023-05-14T19:54:17.570Z,101007.34
2023-05-14T19:57:01.207Z,101009.28
2023-05-14T19:59:45.551Z,101003.63
2023-05-14T20:02:29.639Z,101016.47
2023-05-14T20:05:14.071Z,101013.91
2023-05-14T20:07:57.675Z,101009.84
2023-05-14T20:10:41.695Z,101008.25
2023-05-14T20:13:25.423Z,101011.69
2023-05-14T20:16:09.175Z,101009.44
2023-05-14T20:18:54.151Z,101008.19
2023-05-14T20:21:37.774Z,101002.38
2023-05-14T20:24:21.356Z,101000.81
2023-05-14T20:27:05.380Z,101003.72
2023-05-14T20:29:51.411Z,101005.25
2023-05-14T20:32:35.536Z,100996.91
2023-05-14T20:35:19.180Z,100990.81
2023-05-14T20:38:03.851Z,100993.22
2023-05-14T20:40:48.200Z,100989.66
2023-05-14T20:43:31.816Z,100993.22
2023-05-14T20:46:15.388Z,100990.91
2023-05-14T20:49:02.195Z,100978.72
2023-05-14T20:51:45.878Z,100981.47
